Time;durP1;ratioP1;P1;durP2;ratioP2;P2;SDS_P1;SDS_P2;PMS_P1;PMS_P2;Temp;Humidity;BMP_temperature;BMP_pressure;BME280_temperature;BME280_humidity;BME280_pressure;Samples;Min_cycle;Max_cycle;Signal;HPM_P1;HPM_P2
2022/10/25 00:00:57;;;;;;;4.88;2.40;;;;;;;18.39;100.00;96559.31;5091071;28;20470;-46
2022/10/25 00:03:25;;;;;;;2.92;2.20;;;;;;;18.18;100.00;96552.94;5097300;28;20540;-43
2022/10/25 00:05:53;;;;;;;3.45;2.38;;;;;;;18.60;100.00;96553.94;5102147;28;20066;-48
2022/10/25 00:08:22;;;;;;;2.70;2.38;;;;;;;18.14;100.00;96554.34;5100994;28;20083;-46
2022/10/25 00:10:51;;;;;;;3.08;2.45;;;;;;;18.58;100.00;96541.78;5098506;28;20635;-43
2022/10/25 00:13:20;;;;;;;2.90;2.30;;;;;;;18.39;100.00;96544.09;5093855;28;20083;-44
2022/10/25 00:15:48;;;;;;;2.65;2.40;;;;;;;18.02;100.00;96545.16;5097354;28;20532;-43
2022/10/25 00:18:16;;;;;;;5.07;2.80;;;;;;;18.09;100.00;96547.91;5095400;28;20062;-48
2022/10/25 00:20:45;;;;;;;4.40;2.50;;;;;;;18.08;100.00;96549.75;5094808;28;20542;-46
2022/10/25 00:23:14;;;;;;;4.07;2.72;;;;;;;18.06;100.00;96554.44;5099416;28;20091;-46
2022/10/25 00:25:43;;;;;;;2.92;2.55;;;;;;;18.50;100.00;96556.09;5099641;28;20067;-43
2022/10/25 00:28:13;;;;;;;4.85;2.70;;;;;;;18.37;100.00;96561.31;5098230;28;20060;-47
2022/10/25 00:30:41;;;;;;;4.93;2.57;;;;;;;17.87;100.00;96555.06;5103838;28;20067;-45
2022/10/25 00:33:09;;;;;;;4.43;2.65;;;;;;;18.69;100.00;96558.13;5097280;28;20563;-44
2022/10/25 00:35:37;;;;;;;5.07;2.85;;;;;;;18.57;100.00;96557.00;5097013;28;20083;-42
2022/10/25 00:38:06;;;;;;;4.55;2.80;;;;;;;18.52;100.00;96555.94;5095728;28;20397;-42
2022/10/25 00:40:34;;;;;;;4.25;2.70;;;;;;;18.19;100.00;96553.75;5099301;28;20083;-43
2022/10/25 00:43:02;;;;;;;3.67;2.70;;;;;;;17.81;100.00;96556.63;5097595;28;20123;-43
2022/10/25 00:45:32;;;;;;;6.38;2.35;;;;;;;17.96;100.00;96554.78;5103884;28;20071;-45
2022/10/25 00:48:04;;;;;;;3.92;2.50;;;;;;;17.97;100.00;96550.25;5099196;28;20083;-43
2022/10/25 00:50:41;;;;;;;4.00;2.60;;;;;;;17.43;100.00;96551.41;5099700;28;20075;-42
2022/10/25 00:53:17;;;;;;;3.38;2.60;;;;;;;17.97;100.00;96552.94;5077397;28;20072;-45
2022/10/25 00:55:48;;;;;;;2.70;2.30;;;;;;;18.03;100.00;96555.66;5095264;28;20075;-47
2022/10/25 00:58:19;;;;;;;3.28;2.40;;;;;;;18.37;100.00;96554.13;5104678;28;20070;-46
2022/10/25 01:00:49;;;;;;;3.13;2.38;;;;;;;18.15;100.00;96557.84;5102584;28;20076;-43
2022/10/25 01:03:19;;;;;;;6.82;2.70;;;;;;;18.19;100.00;96564.44;5102719;28;20067;-43
2022/10/25 01:05:48;;;;;;;2.78;2.50;;;;;;;17.95;100.00;96558.44;5101203;28;20067;-43
2022/10/25 01:08:17;;;;;;;2.88;2.50;;;;;;;18.37;100.00;96555.97;5103006;28;20067;-47
2022/10/25 01:10:46;;;;;;;3.53;3.13;;;;;;;18.34;100.00;96556.34;5103699;28;20075;-45
2022/10/25 01:13:14;;;;;;;3.30;2.50;;;;;;;18.38;100.00;96557.66;5079681;28;20067;-45
2022/10/25 01:15:55;;;;;;;4.55;2.58;;;;;;;18.48;100.00;96555.50;5101364;28;20075;-43
2022/10/25 01:18:30;;;;;;;3.47;2.83;;;;;;;18.83;100.00;96555.59;5105861;28;20086;-42
2022/10/25 01:21:24;;;;;;;5.45;2.90;;;;;;;19.03;100.00;96545.88;5098620;28;20067;-47
2022/10/25 01:24:08;;;;;;;3.45;2.83;;;;;;;19.02;100.00;96543.38;5095921;28;20091;-47
2022/10/25 01:27:04;;;;;;;3.00;2.40;;;;;;;19.08;100.00;96531.91;5098260;28;21230;-44
2022/10/25 01:29:59;;;;;;;3.67;2.67;;;;;;;19.10;100.00;96538.72;5096014;28;20091;-45
2022/10/25 01:32:32;;;;;;;3.92;2.53;;;;;;;19.08;100.00;96534.59;5088907;28;20071;-45
2022/10/25 01:35:07;;;;;;;3.95;2.58;;;;;;;18.93;100.00;96540.06;5085571;28;20496;-45
2022/10/25 01:37:42;;;;;;;3.45;2.88;;;;;;;18.78;100.00;96545.47;5096053;28;20084;-46
2022/10/25 01:40:17;;;;;;;3.30;2.55;;;;;;;18.50;100.00;96546.25;5099879;28;20477;-45
2022/10/25 01:42:51;;;;;;;2.80;2.55;;;;;;;18.06;100.00;96538.44;5100075;28;20125;-45
2022/10/25 01:45:21;;;;;;;3.85;2.97;;;;;;;16.56;100.00;96545.81;5101460;28;20059;-44
2022/10/25 01:47:55;;;;;;;3.33;2.70;;;;;;;17.28;100.00;96537.28;5103519;28;20079;-44
2022/10/25 01:50:26;;;;;;;2.95;2.65;;;;;;;17.58;100.00;96530.06;5105416;28;20103;-45
2022/10/25 01:52:55;;;;;;;4.07;2.90;;;;;;;17.40;100.00;96534.97;5097851;28;20074;-43
2022/10/25 01:55:27;;;;;;;4.60;2.78;;;;;;;18.09;100.00;96532.72;5093861;28;22069;-42
2022/10/25 01:58:00;;;;;;;3.65;2.90;;;;;;;18.33;100.00;96536.84;5099407;28;20060;-43
2022/10/25 02:00:31;;;;;;;4.47;3.08;;;;;;;18.30;100.00;96536.41;5097874;28;20086;-43
2022/10/25 02:03:08;;;;;;;;;;;;;;;18.57;100.00;96535.63;5103712;28;20094;-43
2022/10/25 02:05:49;;;;;;;3.40;3.03;;;;;;;18.35;100.00;96536.69;5103006;28;20386;-46
2022/10/25 02:08:27;;;;;;;3.95;2.78;;;;;;;18.56;100.00;96533.97;5098997;28;20533;-47
2022/10/25 02:11:01;;;;;;;3.55;2.92;;;;;;;18.53;100.00;96539.69;5098827;28;20075;-45
2022/10/25 02:13:33;;;;;;;5.43;2.60;;;;;;;18.55;100.00;96545.69;5097458;28;20110;-43
2022/10/25 02:16:04;;;;;;;4.03;2.60;;;;;;;18.41;100.00;96542.09;5097465;28;20484;-47
2022/10/25 02:18:37;;;;;;;3.03;2.67;;;;;;;18.50;100.00;96538.22;5099584;28;20628;-42
2022/10/25 02:21:06;;;;;;;3.08;2.60;;;;;;;18.34;100.00;96546.53;5096665;28;20220;-44
2022/10/25 02:23:35;;;;;;;4.00;2.97;;;;;;;18.36;100.00;96539.13;5097454;28;20088;-46
2022/10/25 02:26:05;;;;;;;2.90;2.67;;;;;;;18.49;100.00;96533.91;5097015;28;20083;-50
2022/10/25 02:28:36;;;;;;;6.22;2.70;;;;;;;18.12;100.00;96535.00;5094743;28;20076;-45
2022/10/25 02:31:04;;;;;;;;;;;;;;;17.98;100.00;96535.91;5090924;28;20106;-48
2022/10/25 02:33:32;;;;;;;5.55;2.50;;;;;;;18.35;100.00;96542.00;5096423;28;19947;-46
2022/10/25 02:36:13;;;;;;;5.97;2.50;;;;;;;18.62;100.00;96540.41;5096425;28;20080;-45
2022/10/25 02:38:41;;;;;;;;;;;;;;;18.35;100.00;96542.00;5101881;28;20083;-44
2022/10/25 02:41:09;;;;;;;3.55;2.30;;;;;;;18.18;100.00;96544.09;5099074;28;19967;-44
2022/10/25 02:43:37;;;;;;;2.60;2.40;;;;;;;18.65;100.00;96540.84;5091413;28;20079;-44
2022/10/25 02:46:08;;;;;;;4.07;2.40;;;;;;;18.69;100.00;96533.28;5094575;28;20090;-45
2022/10/25 02:48:37;;;;;;;2.42;2.22;;;;;;;18.70;100.00;96546.41;5098195;28;20110;-45
2022/10/25 02:51:06;;;;;;;4.85;2.30;;;;;;;18.88;100.00;96543.28;5098097;28;20076;-43
2022/10/25 02:53:36;;;;;;;4.80;2.00;;;;;;;18.71;100.00;96552.59;5096640;28;20071;-43
2022/10/25 02:56:06;;;;;;;3.03;2.10;;;;;;;18.48;100.00;96563.50;5093996;28;20079;-45
2022/10/25 02:58:36;;;;;;;3.78;2.20;;;;;;;18.15;100.00;96557.84;5093121;28;20158;-44
2022/10/25 03:01:05;;;;;;;4.50;2.30;;;;;;;18.29;100.00;96562.28;5094084;28;20087;-43
2022/10/25 03:03:34;;;;;;;4.17;2.57;;;;;;;18.54;100.00;96562.72;5095755;28;20083;-49
2022/10/25 03:06:03;;;;;;;5.25;2.13;;;;;;;18.92;100.00;96555.25;5099559;28;20079;-47
2022/10/25 03:08:32;;;;;;;3.72;2.20;;;;;;;18.45;100.00;96561.22;5099769;28;20075;-44
2022/10/25 03:11:01;;;;;;;4.90;2.00;;;;;;;18.25;100.00;96558.34;5094096;28;20078;-49
2022/10/25 03:13:30;;;;;;;2.53;2.10;;;;;;;18.46;100.00;96557.50;5099993;28;20082;-43
2022/10/25 03:15:58;;;;;;;3.80;2.17;;;;;;;18.77;100.00;96554.53;5095009;28;20494;-43
2022/10/25 03:18:27;;;;;;;3.67;1.95;;;;;;;18.89;100.00;96558.31;5097201;28;20066;-44
2022/10/25 03:20:56;;;;;;;3.40;2.20;;;;;;;18.74;100.00;96557.56;5095997;28;20147;-45
2022/10/25 03:23:25;;;;;;;3.00;2.20;;;;;;;18.81;100.00;96557.63;5103593;28;20083;-47
2022/10/25 03:25:53;;;;;;;2.40;2.00;;;;;;;18.62;100.00;96559.94;5100081;28;20501;-46
2022/10/25 03:28:23;;;;;;;3.53;2.00;;;;;;;18.97;100.00;96560.03;5102665;28;20453;-42
2022/10/25 03:30:51;;;;;;;2.50;2.05;;;;;;;18.26;100.00;96560.81;5098002;28;20083;-46
2022/10/25 03:33:19;;;;;;;2.85;2.10;;;;;;;18.60;100.00;96559.28;5097164;28;20079;-47
2022/10/25 03:35:50;;;;;;;3.00;2.08;;;;;;;18.98;100.00;96567.00;5092284;28;20087;-47
2022/10/25 03:38:19;;;;;;;3.00;1.88;;;;;;;18.99;100.00;96568.66;5095746;28;20090;-46
2022/10/25 03:40:47;;;;;;;2.85;2.10;;;;;;;18.94;100.00;96573.78;5099028;28;20461;-44
2022/10/25 03:43:15;;;;;;;3.80;2.10;;;;;;;19.01;100.00;96573.81;5096947;28;20090;-43
2022/10/25 03:45:45;;;;;;;3.08;2.08;;;;;;;18.93;100.00;96577.47;5095888;28;20083;-48
2022/10/25 03:48:13;;;;;;;4.33;2.27;;;;;;;18.96;100.00;96582.44;5089615;28;20795;-45
2022/10/25 03:50:41;;;;;;;2.65;2.10;;;;;;;18.85;100.00;96578.41;5097647;28;20079;-46
2022/10/25 03:53:11;;;;;;;4.43;2.40;;;;;;;18.66;100.00;96576.41;5090414;28;20086;-46
2022/10/25 03:55:39;;;;;;;3.25;2.50;;;;;;;18.47;100.00;96578.69;5093768;28;20071;-44
2022/10/25 03:58:07;;;;;;;4.93;2.45;;;;;;;18.49;100.00;96575.81;5095470;28;20067;-45
2022/10/25 04:00:36;;;;;;;3.17;2.42;;;;;;;18.46;100.00;96579.69;5093726;28;20101;-45
2022/10/25 04:03:05;;;;;;;3.75;2.45;;;;;;;18.59;100.00;96575.50;5092594;28;20128;-48
2022/10/25 04:05:38;;;;;;;4.50;2.13;;;;;;;18.42;100.00;96575.75;5099135;28;20088;-45
2022/10/25 04:08:07;;;;;;;7.07;2.83;;;;;;;18.69;100.00;96584.03;5100157;28;20064;-43
2022/10/25 04:10:35;;;;;;;3.25;2.50;;;;;;;18.56;100.00;96576.72;5096333;28;20079;-43
2022/10/25 04:13:03;;;;;;;3.40;2.22;;;;;;;18.45;100.00;96585.25;5100847;28;20608;-47
2022/10/25 04:15:32;;;;;;;6.15;2.67;;;;;;;18.55;100.00;96582.22;5096732;28;20090;-45
2022/10/25 04:18:00;;;;;;;2.90;2.50;;;;;;;18.54;100.00;96577.91;5096101;28;20090;-48
2022/10/25 04:20:29;;;;;;;3.47;2.58;;;;;;;18.54;100.00;96589.41;5093769;28;20090;-47
2022/10/25 04:22:58;;;;;;;5.30;2.83;;;;;;;18.36;100.00;96581.03;5093312;28;20076;-45
2022/10/25 04:25:27;;;;;;;4.55;2.90;;;;;;;17.99;100.00;96586.38;5091732;28;20743;-46
2022/10/25 04:27:58;;;;;;;3.97;2.27;;;;;;;17.30;100.00;96596.56;5094162;28;20068;-43
2022/10/25 04:30:26;;;;;;;2.95;2.22;;;;;;;17.81;100.00;96583.31;5096073;28;20505;-46
2022/10/25 04:32:56;;;;;;;3.03;2.22;;;;;;;18.13;100.00;96581.19;5096532;28;20084;-44
2022/10/25 04:35:25;;;;;;;2.80;2.25;;;;;;;18.01;100.00;96576.38;5100060;28;20082;-48
2022/10/25 04:37:57;;;;;;;2.67;2.30;;;;;;;18.60;100.00;96574.47;5095485;28;20556;-44
2022/10/25 04:40:25;;;;;;;2.33;2.13;;;;;;;18.69;100.00;96574.16;5100313;28;20517;-44
2022/10/25 04:42:54;;;;;;;4.53;2.20;;;;;;;18.48;100.00;96576.84;5074323;28;20048;-47
2022/10/25 04:45:23;;;;;;;2.95;2.08;;;;;;;18.85;100.00;96581.09;5095634;28;20086;-43
2022/10/25 04:47:51;;;;;;;3.97;2.10;;;;;;;18.64;100.00;96573.91;5098817;28;20078;-41
2022/10/25 04:50:19;;;;;;;6.00;2.30;;;;;;;18.19;100.00;96586.63;5101136;28;20094;-43
2022/10/25 04:52:48;;;;;;;3.58;2.20;;;;;;;17.33;100.00;96582.84;5098547;28;20094;-44
2022/10/25 04:55:18;;;;;;;2.60;1.92;;;;;;;18.34;100.00;96575.91;5100935;28;20083;-42
2022/10/25 04:57:46;;;;;;;2.35;2.10;;;;;;;18.31;100.00;96572.78;5107662;28;20083;-45
2022/10/25 05:00:14;;;;;;;2.75;1.95;;;;;;;18.28;100.00;96579.31;5100758;28;20087;-45
2022/10/25 05:02:43;;;;;;;2.25;2.05;;;;;;;18.46;100.00;96578.88;5098430;28;20142;-47
2022/10/25 05:05:11;;;;;;;4.10;2.38;;;;;;;18.08;100.00;96578.28;5101771;28;20079;-44
2022/10/25 05:07:40;;;;;;;2.05;1.90;;;;;;;18.16;100.00;96589.66;5093705;28;20083;-48
2022/10/25 05:10:08;;;;;;;2.92;2.08;;;;;;;18.35;100.00;96582.06;5102086;28;20541;-48
2022/10/25 05:12:38;;;;;;;2.53;2.03;;;;;;;17.77;100.00;96598.03;5093911;28;20079;-42
2022/10/25 05:15:08;;;;;;;2.92;2.20;;;;;;;18.23;100.00;96587.88;5096381;28;20483;-41
2022/10/25 05:17:36;;;;;;;5.37;2.10;;;;;;;18.25;100.00;96595.72;5092603;28;20076;-48
2022/10/25 05:20:06;;;;;;;6.40;2.33;;;;;;;18.25;100.00;96585.03;5098027;28;20470;-44
2022/10/25 05:22:34;;;;;;;2.42;2.05;;;;;;;18.44;100.00;96583.56;5103750;28;20087;-46
2022/10/25 05:25:02;;;;;;;2.35;1.90;;;;;;;18.83;100.00;96590.34;5099280;28;20083;-45
2022/10/25 05:27:31;;;;;;;4.80;2.20;;;;;;;18.64;100.00;96602.47;5091672;28;20076;-45
2022/10/25 05:30:00;;;;;;;4.25;1.90;;;;;;;18.52;100.00;96596.81;5095428;28;20084;-43
2022/10/25 05:32:30;;;;;;;4.00;2.10;;;;;;;18.68;100.00;96601.88;5101589;28;20098;-48
2022/10/25 05:34:58;;;;;;;2.47;2.05;;;;;;;18.55;100.00;96598.25;5091860;28;20716;-43
2022/10/25 05:37:26;;;;;;;2.70;1.77;;;;;;;18.86;100.00;96606.81;5105483;28;20537;-48
2022/10/25 05:39:54;;;;;;;3.33;1.95;;;;;;;18.95;100.00;96613.66;5104399;28;20548;-43
2022/10/25 05:42:22;;;;;;;2.95;2.10;;;;;;;18.79;100.00;96607.75;5090691;28;20095;-47
2022/10/25 05:44:51;;;;;;;5.43;2.00;;;;;;;19.10;100.00;96610.91;5091465;28;20513;-44
2022/10/25 05:47:20;;;;;;;3.78;2.03;;;;;;;19.31;100.00;96614.56;5098118;28;20083;-44
2022/10/25 05:49:49;;;;;;;4.13;2.00;;;;;;;18.45;100.00;96611.94;5091028;28;20087;-46
2022/10/25 05:52:17;;;;;;;2.80;2.13;;;;;;;19.04;100.00;96611.69;5090905;28;20109;-48
2022/10/25 05:54:45;;;;;;;2.72;2.17;;;;;;;18.71;100.00;96617.56;5110836;28;20086;-44
2022/10/25 05:57:13;;;;;;;2.78;1.88;;;;;;;18.84;100.00;96619.53;5097010;28;20087;-47
2022/10/25 05:59:41;;;;;;;2.20;1.85;;;;;;;19.47;100.00;96611.53;5099465;28;20076;-42
2022/10/25 06:02:10;;;;;;;5.60;2.05;;;;;;;19.32;100.00;96616.19;5099796;28;20079;-49
2022/10/25 06:04:40;;;;;;;3.72;1.77;;;;;;;19.71;100.00;96617.47;5094400;28;20462;-43
2022/10/25 06:07:09;;;;;;;4.73;1.90;;;;;;;19.75;100.00;96618.72;5099392;28;20076;-48
2022/10/25 06:09:37;;;;;;;1.73;1.60;;;;;;;19.79;100.00;96618.16;5097212;28;20067;-44
2022/10/25 06:12:06;;;;;;;2.63;2.03;;;;;;;19.67;100.00;96625.88;5090555;28;20076;-47
2022/10/25 06:14:36;;;;;;;2.55;1.90;;;;;;;18.85;100.00;96629.19;5087981;28;20074;-45
2022/10/25 06:17:05;;;;;;;1.90;1.63;;;;;;;20.02;100.00;96625.84;5109411;28;20696;-44
2022/10/25 06:19:33;;;;;;;2.17;1.98;;;;;;;19.44;100.00;96638.69;5090449;28;20083;-45
2022/10/25 06:22:02;;;;;;;2.30;1.90;;;;;;;19.74;100.00;96643.84;5099139;28;20078;-43
2022/10/25 06:24:31;;;;;;;1.83;1.57;;;;;;;19.58;100.00;96647.63;5094662;28;20079;-43
2022/10/25 06:26:59;;;;;;;2.17;1.90;;;;;;;19.12;100.00;96654.28;5097037;28;20083;-44
2022/10/25 06:29:27;;;;;;;2.22;1.90;;;;;;;19.15;100.00;96659.25;5072150;28;20067;-44
2022/10/25 06:31:56;;;;;;;2.55;1.83;;;;;;;19.37;100.00;96657.38;5097214;28;20071;-43
2022/10/25 06:34:24;;;;;;;4.65;1.90;;;;;;;19.29;100.00;96657.50;5090258;28;20530;-47
2022/10/25 06:36:52;;;;;;;2.30;1.90;;;;;;;19.38;100.00;96661.69;5099944;28;20069;-48
2022/10/25 06:39:22;;;;;;;2.33;2.10;;;;;;;19.12;100.00;96664.16;5094122;28;20091;-49
2022/10/25 06:41:50;;;;;;;2.00;1.80;;;;;;;18.74;100.00;96659.91;5100864;28;20075;-44
2022/10/25 06:44:19;;;;;;;3.15;2.10;;;;;;;19.04;100.00;96667.81;5099920;28;20526;-46
2022/10/25 06:46:47;;;;;;;3.88;2.25;;;;;;;18.52;100.00;96668.94;5100917;28;20071;-49
2022/10/25 06:49:35;;;;;;;3.67;2.20;;;;;;;18.63;100.00;96671.09;5103003;28;20076;-49
2022/10/25 06:52:03;;;;;;;2.70;2.00;;;;;;;18.78;100.00;96667.56;5097278;28;20082;-42
2022/10/25 06:54:33;;;;;;;5.25;2.25;;;;;;;19.63;100.00;96663.94;5088878;28;20111;-48
2022/10/25 06:57:01;;;;;;;7.55;2.20;;;;;;;19.25;100.00;96672.28;5102250;28;20083;-41
2022/10/25 06:59:29;;;;;;;2.38;2.17;;;;;;;19.60;100.00;96667.81;5095497;28;20079;-42
2022/10/25 07:01:57;;;;;;;4.82;2.20;;;;;;;19.62;100.00;96670.31;5096184;28;20087;-42
2022/10/25 07:04:26;;;;;;;7.65;1.90;;;;;;;19.45;100.00;96683.97;5102854;28;20087;-48
2022/10/25 07:06:54;;;;;;;5.00;2.20;;;;;;;19.89;100.00;96677.50;5096133;28;20082;-46
2022/10/25 07:09:22;;;;;;;5.55;2.80;;;;;;;19.62;100.00;96681.81;5109687;28;20075;-46
2022/10/25 07:11:52;;;;;;;4.15;2.30;;;;;;;19.24;100.00;96677.84;5109495;28;20552;-44
2022/10/25 07:14:21;;;;;;;2.45;2.20;;;;;;;20.10;100.00;96681.91;5103349;28;20083;-44
2022/10/25 07:16:49;;;;;;;3.00;2.50;;;;;;;20.42;100.00;96681.41;5096450;28;20529;-45
2022/10/25 07:19:17;;;;;;;4.72;2.67;;;;;;;20.49;100.00;96683.09;5096221;28;20083;-50
2022/10/25 07:21:45;;;;;;;8.63;2.67;;;;;;;20.21;100.00;96695.75;5102183;28;20084;-47
2022/10/25 07:24:14;;;;;;;4.65;2.33;;;;;;;19.91;100.00;96696.84;5099676;28;20083;-43
2022/10/25 07:26:42;;;;;;;4.30;2.13;;;;;;;19.70;100.00;96696.09;5096338;28;20074;-42
2022/10/25 07:29:11;;;;;;;4.07;2.40;;;;;;;20.43;100.00;96696.47;5104854;28;20083;-44
2022/10/25 07:31:42;;;;;;;3.07;1.77;;;;;;;20.67;100.00;96689.75;5094240;28;20478;-48
2022/10/25 07:34:12;;;;;;;2.75;1.70;;;;;;;20.89;100.00;96691.25;5095702;28;20079;-51
2022/10/25 07:36:40;;;;;;;;;;;;;;;20.30;100.00;96691.88;5101629;28;20083;-43
2022/10/25 07:39:09;;;;;;;6.53;1.85;;;;;;;20.57;100.00;96696.31;5091681;28;19970;-47
2022/10/25 07:41:37;;;;;;;3.55;1.65;;;;;;;20.81;100.00;96688.75;5104558;28;20067;-42
2022/10/25 07:44:06;;;;;;;8.52;1.50;;;;;;;20.60;100.00;96690.56;5094669;28;20067;-45
2022/10/25 07:46:41;;;;;;;2.60;1.40;;;;;;;21.12;100.00;96690.84;5089778;28;20079;-48
2022/10/25 07:49:09;;;;;;;3.47;1.10;;;;;;;20.13;100.00;96700.25;5096307;28;20079;-42
2022/10/25 07:51:38;;;;;;;2.53;1.30;;;;;;;20.65;100.00;96700.69;5102848;28;20489;-45
2022/10/25 07:54:06;;;;;;;2.65;0.88;;;;;;;20.77;100.00;96700.91;5091294;28;20079;-47
2022/10/25 07:56:35;;;;;;;2.10;0.98;;;;;;;20.70;100.00;96713.47;5098906;28;20094;-47
2022/10/25 07:59:03;;;;;;;3.17;0.85;;;;;;;21.46;100.00;96703.28;5072157;28;20064;-44
2022/10/25 08:01:31;;;;;;;3.47;0.90;;;;;;;21.97;100.00;96710.63;5091906;28;20079;-42
2022/10/25 08:04:01;;;;;;;3.53;0.73;;;;;;;21.53;100.00;96705.97;5100085;28;20079;-53
2022/10/25 08:06:29;;;;;;;1.17;0.60;;;;;;;21.47;100.00;96702.25;5103966;28;20094;-47
2022/10/25 08:08:57;;;;;;;1.77;0.70;;;;;;;22.01;100.00;96703.81;5100943;28;20094;-45
2022/10/25 08:11:42;;;;;;;1.60;0.70;;;;;;;21.39;100.00;96699.78;5100417;28;20082;-43
2022/10/25 08:14:10;;;;;;;3.17;0.88;;;;;;;21.37;100.00;96701.84;5099259;28;20075;-48
2022/10/25 08:16:38;;;;;;;2.15;0.75;;;;;;;22.01;100.00;96695.75;5107153;28;20647;-49
2022/10/25 08:19:08;;;;;;;1.48;0.73;;;;;;;22.02;100.00;96681.31;5099603;28;20083;-45
2022/10/25 08:21:36;;;;;;;1.58;0.93;;;;;;;22.32;100.00;96688.84;5099082;28;20076;-45
2022/10/25 08:24:06;;;;;;;2.45;0.68;;;;;;;22.56;100.00;96681.09;5101224;28;20109;-45
2022/10/25 08:26:34;;;;;;;2.30;0.80;;;;;;;22.42;100.00;96689.22;5096644;28;20091;-45
2022/10/25 08:29:04;;;;;;;1.48;0.77;;;;;;;21.98;100.00;96684.59;5099481;28;20113;-44
2022/10/25 08:31:32;;;;;;;3.95;0.93;;;;;;;22.57;100.00;96688.13;5104532;28;20505;-42
2022/10/25 08:34:00;;;;;;;2.22;0.80;;;;;;;21.61;100.00;96688.81;5092605;28;20473;-43
2022/10/25 08:36:30;;;;;;;1.83;0.63;;;;;;;22.25;100.00;96680.81;5112249;28;20486;-45
2022/10/25 08:38:58;;;;;;;1.27;0.77;;;;;;;22.13;100.00;96693.25;5111398;28;20071;-47
2022/10/25 08:41:33;;;;;;;1.52;0.90;;;;;;;23.01;100.00;96683.75;5099005;28;20522;-42
2022/10/25 08:44:12;;;;;;;3.03;0.70;;;;;;;23.12;100.00;96694.63;5100851;28;20075;-44
2022/10/25 08:46:43;;;;;;;2.65;0.70;;;;;;;22.69;100.00;96683.72;5105353;28;20079;-46
2022/10/25 08:49:19;;;;;;;1.20;0.80;;;;;;;22.86;100.00;96698.31;5106248;28;20086;-45
2022/10/25 08:51:50;;;;;;;2.45;0.70;;;;;;;23.11;100.00;96694.88;5105570;28;20522;-44
2022/10/25 08:54:21;;;;;;;;;;;;;;;23.27;100.00;96693.50;5099440;28;20079;-45
2022/10/25 08:56:52;;;;;;;2.03;0.70;;;;;;;22.15;100.00;96699.25;5093744;28;19955;-44
2022/10/25 08:59:43;;;;;;;1.63;0.80;;;;;;;23.56;100.00;96687.44;5094671;28;20459;-47
2022/10/25 09:02:17;;;;;;;3.13;0.70;;;;;;;23.65;100.00;96694.22;5092217;28;20128;-45
2022/10/25 09:04:46;;;;;;;1.65;0.68;;;;;;;22.75;100.00;96707.06;5092171;28;20117;-43
2022/10/25 09:07:34;;;;;;;0.85;0.70;;;;;;;22.79;100.00;96705.59;5098672;28;20095;-46
2022/10/25 09:10:18;;;;;;;0.70;0.50;;;;;;;22.74;100.00;96702.72;5098658;28;20087;-44
2022/10/25 09:12:55;;;;;;;2.63;0.90;;;;;;;22.49;100.00;96711.53;5104917;28;20086;-47
2022/10/25 09:15:33;;;;;;;2.20;0.73;;;;;;;22.42;100.00;96699.97;5104899;28;20079;-45
2022/10/25 09:18:14;;;;;;;3.85;1.00;;;;;;;22.24;100.00;96713.28;5094906;28;20079;-44
2022/10/25 09:20:47;;;;;;;2.97;0.70;;;;;;;22.75;100.00;96704.38;5097485;28;20076;-44
2022/10/25 09:23:24;;;;;;;3.90;0.80;;;;;;;23.45;100.00;96696.25;5103782;28;20091;-43
2022/10/25 09:25:59;;;;;;;2.88;0.73;;;;;;;23.50;100.00;96703.66;5100358;28;20076;-45
2022/10/25 09:28:38;;;;;;;2.08;0.88;;;;;;;22.71;100.00;96700.44;5095654;28;20079;-43
2022/10/25 09:31:08;;;;;;;2.20;0.88;;;;;;;23.41;100.00;96698.56;5097952;28;20478;-43
2022/10/25 09:33:36;;;;;;;0.85;0.60;;;;;;;23.08;100.00;96706.88;5098018;28;20084;-42
2022/10/25 09:36:05;;;;;;;2.17;0.80;;;;;;;22.97;100.00;96699.50;5102771;28;20086;-45
2022/10/25 09:38:38;;;;;;;2.90;0.73;;;;;;;23.93;100.00;96699.13;5098014;28;20522;-42
2022/10/25 09:41:12;;;;;;;1.75;0.70;;;;;;;23.75;100.00;96706.38;5092062;28;20080;-42
2022/10/25 09:43:45;;;;;;;2.10;0.75;;;;;;;23.32;100.00;96716.00;5097767;28;20098;-48
2022/10/25 09:46:16;;;;;;;3.88;1.08;;;;;;;23.00;100.00;96706.34;5104156;28;20079;-42
2022/10/25 09:48:50;;;;;;;2.85;0.98;;;;;;;23.27;100.00;96702.41;5103522;28;20110;-50
2022/10/25 09:51:24;;;;;;;2.38;0.70;;;;;;;23.73;100.00;96709.28;5092640;28;20080;-46
2022/10/25 09:53:55;;;;;;;5.70;0.90;;;;;;;23.68;100.00;96711.84;5100618;28;20080;-43
2022/10/25 09:56:23;;;;;;;2.75;0.90;;;;;;;23.59;100.00;96708.56;5095569;28;20549;-44
2022/10/25 09:58:51;;;;;;;1.42;0.57;;;;;;;23.90;99.60;96709.53;5104443;28;20086;-42
2022/10/25 10:01:22;;;;;;;4.15;0.85;;;;;;;23.28;100.00;96704.03;5097335;28;20072;-43
2022/10/25 10:03:50;;;;;;;2.45;0.98;;;;;;;23.54;97.22;96713.78;5104772;28;20103;-46
2022/10/25 10:06:26;;;;;;;5.47;0.75;;;;;;;23.68;100.00;96709.13;5097507;28;20088;-47
2022/10/25 10:09:00;;;;;;;3.95;0.70;;;;;;;23.91;98.78;96709.31;5098239;28;20088;-47
2022/10/25 10:11:29;;;;;;;2.67;0.65;;;;;;;23.56;100.00;96708.16;5098033;28;20087;-44
2022/10/25 10:14:01;;;;;;;1.73;0.70;;;;;;;23.96;95.98;96714.03;5100038;28;20087;-44
2022/10/25 10:16:38;;;;;;;2.85;0.90;;;;;;;23.59;99.28;96697.78;5099028;28;20110;-45
2022/10/25 10:19:15;;;;;;;2.85;0.70;;;;;;;23.86;100.00;96711.84;5096344;28;20285;-48
2022/10/25 10:21:44;;;;;;;2.47;0.70;;;;;;;23.72;100.00;96718.41;5092705;28;20110;-44
2022/10/25 10:24:17;;;;;;;3.20;0.75;;;;;;;23.82;95.44;96707.13;5103260;28;20083;-46
2022/10/25 10:26:47;;;;;;;3.47;0.80;;;;;;;23.29;99.39;96710.25;5096781;28;20083;-43
2022/10/25 10:29:19;;;;;;;3.17;0.90;;;;;;;23.89;100.00;96710.59;5100809;28;20481;-49
2022/10/25 10:31:50;;;;;;;2.08;0.70;;;;;;;23.68;100.00;96701.06;5090674;28;20099;-45
2022/10/25 10:34:26;;;;;;;2.08;0.70;;;;;;;24.03;100.00;96692.41;5090141;28;20091;-47
2022/10/25 10:37:02;;;;;;;4.47;0.90;;;;;;;23.48;100.00;96703.06;5096933;28;20079;-42
2022/10/25 10:39:32;;;;;;;3.97;0.75;;;;;;;23.66;93.01;96698.53;5096811;28;20076;-44
2022/10/25 10:42:02;;;;;;;3.33;0.90;;;;;;;23.95;92.40;96698.09;5096990;28;20087;-46
2022/10/25 10:44:33;;;;;;;3.35;0.90;;;;;;;23.80;91.03;96690.38;5091984;28;20486;-44
2022/10/25 10:47:02;;;;;;;2.45;0.77;;;;;;;24.28;98.87;96692.34;5103525;28;20549;-41
2022/10/25 10:49:35;;;;;;;2.15;0.80;;;;;;;24.13;90.76;96687.34;5095073;28;20526;-42
2022/10/25 10:52:03;;;;;;;2.45;0.70;;;;;;;24.29;95.08;96691.28;5095628;28;20502;-42
2022/10/25 10:54:34;;;;;;;2.47;0.90;;;;;;;24.50;81.31;96687.31;5090512;28;20086;-42
2022/10/25 10:57:04;;;;;;;3.00;0.90;;;;;;;24.69;82.09;96686.25;5095274;28;20087;-45
2022/10/25 10:59:36;;;;;;;4.78;0.90;;;;;;;24.75;85.24;96685.31;5107090;28;20450;-45
2022/10/25 11:02:12;;;;;;;3.10;0.70;;;;;;;24.89;83.19;96682.44;5089864;28;20556;-50
2022/10/25 11:04:48;;;;;;;4.00;0.80;;;;;;;24.36;81.13;96689.31;5090044;28;20090;-43
2022/10/25 11:07:26;;;;;;;3.50;0.82;;;;;;;24.84;75.60;96680.41;5096513;28;20079;-47
2022/10/25 11:10:33;;;;;;;5.53;0.75;;;;;;;24.78;77.82;96676.78;5098899;28;20087;-46
2022/10/25 11:13:11;;;;;;;2.72;0.73;;;;;;;24.23;85.95;96682.25;5077296;28;20074;-46
2022/10/25 11:16:00;;;;;;;2.17;0.75;;;;;;;25.58;66.54;96676.38;5092421;28;20079;-45
2022/10/25 11:18:36;;;;;;;2.28;0.80;;;;;;;25.02;76.26;96672.28;5092343;28;20097;-47
2022/10/25 11:21:11;;;;;;;2.92;0.65;;;;;;;25.72;74.77;96676.97;5091470;28;20072;-44
2022/10/25 11:23:49;;;;;;;3.80;0.50;;;;;;;24.81;75.92;96670.94;5091189;28;20083;-45
2022/10/25 11:26:23;;;;;;;2.78;0.70;;;;;;;25.54;69.37;96671.69;5096828;28;20087;-42
2022/10/25 11:28:59;;;;;;;1.83;0.70;;;;;;;25.43;73.53;96665.22;5089638;28;20477;-43
2022/10/25 11:31:34;;;;;;;2.80;0.65;;;;;;;25.87;68.89;96665.69;5105543;28;20082;-45
2022/10/25 11:34:08;;;;;;;1.45;0.65;;;;;;;25.83;63.28;96663.72;5096187;28;20079;-44
2022/10/25 11:36:56;;;;;;;2.92;0.60;;;;;;;25.80;62.85;96657.72;5092793;28;20075;-42
2022/10/25 11:39:37;;;;;;;1.92;0.75;;;;;;;24.74;82.27;96661.25;5095115;28;20078;-44
2022/10/25 11:42:19;;;;;;;1.23;0.45;;;;;;;25.73;67.59;96653.47;5096223;28;20098;-48
2022/10/25 11:45:05;;;;;;;2.42;0.65;;;;;;;25.46;72.73;96650.41;5101645;28;20082;-46